sensor_id;sensor_type;location;lat;lon;timestamp;pressure;altitude;pressure_sealevel;temperature;humidity
80504;BME280;69825;51.190;6.808;2023-08-17T00:02:20;101603.16;;;26.95;54.76
80504;BME280;69825;51.190;6.808;2023-08-17T00:04:45;101593.78;;;26.90;54.93
80504;BME280;69825;51.190;6.808;2023-08-17T00:07:11;101607.59;;;26.96;54.70
80504;BME280;69825;51.190;6.808;2023-08-17T00:09:36;101611.47;;;26.95;55.04
80504;BME280;69825;51.190;6.808;2023-08-17T00:12:02;101591.22;;;26.88;54.58
80504;BME280;69825;51.190;6.808;2023-08-17T00:14:27;101608.69;;;26.95;54.62
80504;BME280;69825;51.190;6.808;2023-08-17T00:16:52;101602.31;;;26.88;54.81
80504;BME280;69825;51.190;6.808;2023-08-17T00:19:18;101613.59;;;26.93;54.77
80504;BME280;69825;51.190;6.808;2023-08-17T00:21:44;101607.00;;;26.94;55.00
80504;BME280;69825;51.190;6.808;2023-08-17T00:24:10;101610.81;;;26.93;54.90
80504;BME280;69825;51.190;6.808;2023-08-17T00:26:36;101609.34;;;26.91;54.61
80504;BME280;69825;51.190;6.808;2023-08-17T00:29:01;101629.16;;;26.94;54.77
80504;BME280;69825;51.190;6.808;2023-08-17T00:31:26;101616.38;;;26.93;55.03
80504;BME280;69825;51.190;6.808;2023-08-17T00:33:52;101616.97;;;26.89;54.54
80504;BME280;69825;51.190;6.808;2023-08-17T00:36:17;101615.72;;;26.91;54.74
80504;BME280;69825;51.190;6.808;2023-08-17T00:38:42;101614.66;;;26.92;54.74
80504;BME280;69825;51.190;6.808;2023-08-17T00:41:08;101608.47;;;26.90;54.90
80504;BME280;69825;51.190;6.808;2023-08-17T00:43:33;101612.94;;;26.91;54.76
80504;BME280;69825;51.190;6.808;2023-08-17T00:45:58;101622.31;;;26.90;54.88
80504;BME280;69825;51.190;6.808;2023-08-17T00:48:25;101616.78;;;26.90;54.75
80504;BME280;69825;51.190;6.808;2023-08-17T00:50:52;101622.31;;;26.90;54.60
80504;BME280;69825;51.190;6.808;2023-08-17T00:53:19;101613.81;;;26.92;54.73
80504;BME280;69825;51.190;6.808;2023-08-17T00:55:45;101611.25;;;26.90;54.78
80504;BME280;69825;51.190;6.808;2023-08-17T00:58:11;101612.94;;;26.91;54.74
80504;BME280;69825;51.190;6.808;2023-08-17T01:00:37;101601.88;;;26.91;54.88
80504;BME280;69825;51.190;6.808;2023-08-17T01:03:02;101601.88;;;26.91;54.75
80504;BME280;69825;51.190;6.808;2023-08-17T01:05:29;101594.63;;;26.90;54.80
80504;BME280;69825;51.190;6.808;2023-08-17T01:07:56;101605.72;;;26.90;55.01
80504;BME280;69825;51.190;6.808;2023-08-17T01:10:21;101601.22;;;26.89;54.91
80504;BME280;69825;51.190;6.808;2023-08-17T01:12:56;101598.47;;;26.89;54.73
80504;BME280;69825;51.190;6.808;2023-08-17T01:15:37;101598.69;;;26.88;54.88
80504;BME280;69825;51.190;6.808;2023-08-17T01:18:23;101598.88;;;26.86;54.86
80504;BME280;69825;51.190;6.808;2023-08-17T01:20:52;101592.03;;;26.89;54.94
80504;BME280;69825;51.190;6.808;2023-08-17T01:23:18;101592.28;;;26.87;54.69
80504;BME280;69825;51.190;6.808;2023-08-17T01:25:43;101585.91;;;26.87;54.86
80504;BME280;69825;51.190;6.808;2023-08-17T01:28:09;101589.53;;;26.87;55.10
80504;BME280;69825;51.190;6.808;2023-08-17T01:30:57;101584.41;;;26.84;55.03
80504;BME280;69825;51.190;6.808;2023-08-17T01:33:44;101576.72;;;26.86;55.03
80504;BME280;69825;51.190;6.808;2023-08-17T01:36:19;101576.72;;;26.86;54.54
80504;BME280;69825;51.190;6.808;2023-08-17T01:38:46;101568.69;;;26.78;54.78
80504;BME280;69825;51.190;6.808;2023-08-17T01:41:12;101579.72;;;26.85;54.87
80504;BME280;69825;51.190;6.808;2023-08-17T01:43:41;101585.47;;;26.83;55.00
80504;BME280;69825;51.190;6.808;2023-08-17T01:46:13;101589.94;;;26.84;55.01
80504;BME280;69825;51.190;6.808;2023-08-17T01:48:39;101589.31;;;26.82;54.86
80504;BME280;69825;51.190;6.808;2023-08-17T01:51:04;101578.47;;;26.81;54.54
80504;BME280;69825;51.190;6.808;2023-08-17T01:53:30;101581.00;;;26.82;54.69
80504;BME280;69825;51.190;6.808;2023-08-17T01:55:55;101574.38;;;26.83;54.50
80504;BME280;69825;51.190;6.808;2023-08-17T01:58:20;101579.31;;;26.81;54.74
80504;BME280;69825;51.190;6.808;2023-08-17T02:00:46;101580.19;;;26.82;54.46
80504;BME280;69825;51.190;6.808;2023-08-17T02:03:11;101582.69;;;26.83;54.49
80504;BME280;69825;51.190;6.808;2023-08-17T02:05:36;101573.78;;;26.81;54.71
80504;BME280;69825;51.190;6.808;2023-08-17T02:08:02;101565.72;;;26.73;54.73
80504;BME280;69825;51.190;6.808;2023-08-17T02:10:27;101566.53;;;26.80;54.63
80504;BME280;69825;51.190;6.808;2023-08-17T02:12:53;101566.53;;;26.80;54.69
80504;BME280;69825;51.190;6.808;2023-08-17T02:15:18;101578.22;;;26.82;54.40
80504;BME280;69825;51.190;6.808;2023-08-17T02:17:43;101570.16;;;26.81;54.59
80504;BME280;69825;51.190;6.808;2023-08-17T02:20:09;101576.56;;;26.81;54.79
80504;BME280;69825;51.190;6.808;2023-08-17T02:22:35;101575.69;;;26.81;54.66
80504;BME280;69825;51.190;6.808;2023-08-17T02:25:00;101577.63;;;26.80;54.78
80504;BME280;69825;51.190;6.808;2023-08-17T02:27:26;101576.78;;;26.80;54.95
80504;BME280;69825;51.190;6.808;2023-08-17T02:29:51;101571.44;;;26.78;54.92
80504;BME280;69825;51.190;6.808;2023-08-17T02:32:17;101575.91;;;26.79;55.03
80504;BME280;69825;51.190;6.808;2023-08-17T02:34:42;101576.97;;;26.78;54.77
80504;BME280;69825;51.190;6.808;2023-08-17T02:37:08;101581.44;;;26.79;54.73
80504;BME280;69825;51.190;6.808;2023-08-17T02:39:33;101571.44;;;26.78;54.63
80504;BME280;69825;51.190;6.808;2023-08-17T02:41:58;101568.69;;;26.78;54.91
80504;BME280;69825;51.190;6.808;2023-08-17T02:44:24;101568.69;;;26.78;54.66
80504;BME280;69825;51.190;6.808;2023-08-17T02:46:49;101564.19;;;26.77;54.94
80504;BME280;69825;51.190;6.808;2023-08-17T02:49:14;101563.34;;;26.77;54.95
80504;BME280;69825;51.190;6.808;2023-08-17T02:51:40;101549.53;;;26.70;54.70
80504;BME280;69825;51.190;6.808;2023-08-17T02:54:05;101564.19;;;26.77;54.52
80504;BME280;69825;51.190;6.808;2023-08-17T02:56:31;101547.84;;;26.69;54.88
80504;BME280;69825;51.190;6.808;2023-08-17T02:58:56;101554.19;;;26.76;54.63
80504;BME280;69825;51.190;6.808;2023-08-17T03:01:21;101547.81;;;26.75;54.83
80504;BME280;69825;51.190;6.808;2023-08-17T03:03:47;101553.34;;;26.75;54.51
80504;BME280;69825;51.190;6.808;2023-08-17T03:06:12;101545.69;;;26.71;54.47
80504;BME280;69825;51.190;6.808;2023-08-17T03:08:37;101552.47;;;26.75;54.72
80504;BME280;69825;51.190;6.808;2023-08-17T03:11:03;101548.03;;;26.74;54.46
80504;BME280;69825;51.190;6.808;2023-08-17T03:13:28;101552.47;;;26.75;54.37
80504;BME280;69825;51.190;6.808;2023-08-17T03:15:54;101552.47;;;26.75;55.10
80504;BME280;69825;51.190;6.808;2023-08-17T03:18:19;101558.88;;;26.75;55.00
80504;BME280;69825;51.190;6.808;2023-08-17T03:20:45;101556.09;;;26.75;55.08
80504;BME280;69825;51.190;6.808;2023-08-17T03:23:11;101552.94;;;26.72;54.75
80504;BME280;69825;51.190;6.808;2023-08-17T03:25:36;101561.03;;;26.73;54.68
80504;BME280;69825;51.190;6.808;2023-08-17T03:28:03;101560.19;;;26.73;54.76
80504;BME280;69825;51.190;6.808;2023-08-17T03:30:28;101552.94;;;26.72;55.10
80504;BME280;69825;51.190;6.808;2023-08-17T03:32:53;101554.66;;;26.73;55.04
80504;BME280;69825;51.190;6.808;2023-08-17T03:35:19;101562.94;;;26.73;54.99
80504;BME280;69825;51.190;6.808;2023-08-17T03:37:44;101557.63;;;26.71;54.76
80504;BME280;69825;51.190;6.808;2023-08-17T03:40:10;101562.94;;;26.73;54.99
80504;BME280;69825;51.190;6.808;2023-08-17T03:42:36;101573.19;;;26.72;54.84
80504;BME280;69825;51.190;6.808;2023-08-17T03:45:02;101565.31;;;26.69;54.79
80504;BME280;69825;51.190;6.808;2023-08-17T03:47:28;101564.22;;;26.70;55.10
80504;BME280;69825;51.190;6.808;2023-08-17T03:49:53;101568.91;;;26.70;54.95
80504;BME280;69825;51.190;6.808;2023-08-17T03:52:18;101565.31;;;26.69;54.73
80504;BME280;69825;51.190;6.808;2023-08-17T03:54:45;101576.16;;;26.71;54.91
80504;BME280;69825;51.190;6.808;2023-08-17T03:57:10;101570.63;;;26.71;54.79
80504;BME280;69825;51.190;6.808;2023-08-17T03:59:35;101563.19;;;26.65;54.72
80504;BME280;69825;51.190;6.808;2023-08-17T04:02:01;101574.47;;;26.70;54.81
80504;BME280;69825;51.190;6.808;2023-08-17T04:04:26;101578.09;;;26.70;55.01
80504;BME280;69825;51.190;6.808;2023-08-17T04:06:52;101577.22;;;26.70;54.79
80504;BME280;69825;51.190;6.808;2023-08-17T04:09:18;101563.03;;;26.60;54.69
80504;BME280;69825;51.190;6.808;2023-08-17T04:11:44;101581.91;;;26.69;54.70
80504;BME280;69825;51.190;6.808;2023-08-17T04:14:09;101578.28;;;26.69;54.60
80504;BME280;69825;51.190;6.808;2023-08-17T04:16:35;101586.59;;;26.69;54.92
80504;BME280;69825;51.190;6.808;2023-08-17T04:19:01;101588.50;;;26.68;54.90
80504;BME280;69825;51.190;6.808;2023-08-17T04:21:26;101583.22;;;26.67;54.62
80504;BME280;69825;51.190;6.808;2023-08-17T04:23:51;101585.34;;;26.65;54.88
80504;BME280;69825;51.190;6.808;2023-08-17T04:26:17;101591.28;;;26.68;54.69
80504;BME280;69825;51.190;6.808;2023-08-17T04:28:42;101592.13;;;26.69;54.76
80504;BME280;69825;51.190;6.808;2023-08-17T04:31:07;101595.16;;;26.67;54.55
80504;BME280;69825;51.190;6.808;2023-08-17T04:33:33;101593.00;;;26.63;55.24
80504;BME280;69825;51.190;6.808;2023-08-17T04:35:58;101595.38;;;26.66;54.88
80504;BME280;69825;51.190;6.808;2023-08-17T04:38:25;101597.28;;;26.65;54.97
80504;BME280;69825;51.190;6.808;2023-08-17T04:40:50;101593.66;;;26.65;54.76
80504;BME280;69825;51.190;6.808;2023-08-17T04:43:15;101590.88;;;26.65;54.56
80504;BME280;69825;51.190;6.808;2023-08-17T04:45:41;101571.56;;;26.52;54.38
80504;BME280;69825;51.190;6.808;2023-08-17T04:48:06;101590.25;;;26.63;54.79
80504;BME280;69825;51.190;6.808;2023-08-17T04:50:31;101593.00;;;26.63;54.70
80504;BME280;69825;51.190;6.808;2023-08-17T04:52:57;101590.06;;;26.58;54.63
80504;BME280;69825;51.190;6.808;2023-08-17T04:55:22;101598.56;;;26.63;54.99
80504;BME280;69825;51.190;6.808;2023-08-17T04:57:48;101604.09;;;26.63;54.65
80504;BME280;69825;51.190;6.808;2023-08-17T05:00:14;101580.72;;;26.52;54.51
80504;BME280;69825;51.190;6.808;2023-08-17T05:02:40;101602.84;;;26.59;54.48
80504;BME280;69825;51.190;6.808;2023-08-17T05:05:06;101609.63;;;26.63;55.07
80504;BME280;69825;51.190;6.808;2023-08-17T05:07:33;101609.63;;;26.63;54.70
80504;BME280;69825;51.190;6.808;2023-08-17T05:09:59;101614.09;;;26.64;54.99
80504;BME280;69825;51.190;6.808;2023-08-17T05:12:25;101591.75;;;26.59;54.80
80504;BME280;69825;51.190;6.808;2023-08-17T05:14:50;101611.34;;;26.64;54.31
80504;BME280;69825;51.190;6.808;2023-08-17T05:17:15;101616.88;;;26.64;54.07
80504;BME280;69825;51.190;6.808;2023-08-17T05:19:41;101609.63;;;26.63;53.97
80504;BME280;69825;51.190;6.808;2023-08-17T05:22:10;101599.63;;;26.62;54.19
80504;BME280;69825;51.190;6.808;2023-08-17T05:24:36;101612.19;;;26.64;54.43
80504;BME280;69825;51.190;6.808;2023-08-17T05:27:02;101606.66;;;26.58;53.59
80504;BME280;69825;51.190;6.808;2023-08-17T05:29:27;101612.63;;;26.55;53.28
80504;BME280;69825;51.190;6.808;2023-08-17T05:31:53;101611.81;;;26.48;52.87
80504;BME280;69825;51.190;6.808;2023-08-17T05:34:18;101615.22;;;26.43;53.12
80504;BME280;69825;51.190;6.808;2023-08-17T05:36:43;101598.66;;;26.30;52.98
80504;BME280;69825;51.190;6.808;2023-08-17T05:39:09;101615.25;;;26.37;53.98
80504;BME280;69825;51.190;6.808;2023-08-17T05:41:34;101618.22;;;26.35;52.82
80504;BME280;69825;51.190;6.808;2023-08-17T05:44:00;101622.28;;;26.32;52.72
80504;BME280;69825;51.190;6.808;2023-08-17T05:46:25;101617.84;;;26.25;52.29
80504;BME280;69825;51.190;6.808;2023-08-17T05:48:50;101612.91;;;26.14;52.34
80504;BME280;69825;51.190;6.808;2023-08-17T05:51:16;101613.38;;;26.04;52.79
80504;BME280;69825;51.190;6.808;2023-08-17T05:53:41;101619.56;;;25.93;53.59
80504;BME280;69825;51.190;6.808;2023-08-17T05:56:06;101622.53;;;25.78;54.59
80504;BME280;69825;51.190;6.808;2023-08-17T05:58:32;101625.50;;;25.77;55.34
80504;BME280;69825;51.190;6.808;2023-08-17T06:01:07;101609.31;;;25.80;54.42
80504;BME280;69825;51.190;6.808;2023-08-17T06:03:37;101615.50;;;25.89;55.87
80504;BME280;69825;51.190;6.808;2023-08-17T06:06:03;101612.31;;;25.92;54.59
80504;BME280;69825;51.190;6.808;2023-08-17T06:08:29;101614.03;;;25.93;53.91
80504;BME280;69825;51.190;6.808;2023-08-17T06:10:55;101616.56;;;25.88;54.35
80504;BME280;69825;51.190;6.808;2023-08-17T06:13:20;101615.31;;;25.84;54.61
80504;BME280;69825;51.190;6.808;2023-08-17T06:15:45;101614.84;;;25.87;54.51
80504;BME280;69825;51.190;6.808;2023-08-17T06:18:11;101594.88;;;25.85;53.89
80504;BME280;69825;51.190;6.808;2023-08-17T06:20:36;101599.53;;;25.98;53.21
80504;BME280;69825;51.190;6.808;2023-08-17T06:23:02;101592.72;;;26.00;53.73
80504;BME280;69825;51.190;6.808;2023-08-17T06:25:27;101605.50;;;26.01;53.96
80504;BME280;69825;51.190;6.808;2023-08-17T06:27:52;101619.53;;;26.06;54.00
80504;BME280;69825;51.190;6.808;2023-08-17T06:30:18;101603.78;;;25.93;53.75
80504;BME280;69825;51.190;6.808;2023-08-17T06:32:43;101612.09;;;25.93;54.26
80504;BME280;69825;51.190;6.808;2023-08-17T06:35:09;101623.38;;;25.92;53.93
80504;BME280;69825;51.190;6.808;2023-08-17T06:37:35;101632.75;;;25.91;54.38
80504;BME280;69825;51.190;6.808;2023-08-17T06:40:02;101625.09;;;25.93;54.25
80504;BME280;69825;51.190;6.808;2023-08-17T06:42:27;101629.31;;;25.95;53.37
80504;BME280;69825;51.190;6.808;2023-08-17T06:44:53;101627.63;;;25.94;53.78
80504;BME280;69825;51.190;6.808;2023-08-17T06:47:18;101633.38;;;25.93;54.26
80504;BME280;69825;51.190;6.808;2023-08-17T06:49:43;101620.81;;;25.90;53.97
80504;BME280;69825;51.190;6.808;2023-08-17T06:52:09;101633.38;;;25.93;54.14
80504;BME280;69825;51.190;6.808;2023-08-17T06:54:34;101612.09;;;25.74;53.88
80504;BME280;69825;51.190;6.808;2023-08-17T06:57:00;101633.59;;;25.85;54.32
80504;BME280;69825;51.190;6.808;2023-08-17T06:59:25;101636.56;;;25.90;53.82
80504;BME280;69825;51.190;6.808;2023-08-17T07:01:51;101624.84;;;25.88;54.44
80504;BME280;69825;51.190;6.808;2023-08-17T07:04:17;101622.94;;;25.95;54.29
80504;BME280;69825;51.190;6.808;2023-08-17T07:06:42;101632.28;;;26.01;53.85
80504;BME280;69825;51.190;6.808;2023-08-17T07:09:08;101632.53;;;25.99;53.85
80504;BME280;69825;51.190;6.808;2023-08-17T07:11:35;101634.66;;;25.97;53.81
80504;BME280;69825;51.190;6.808;2023-08-17T07:14:00;101630.19;;;25.96;53.74
80504;BME280;69825;51.190;6.808;2023-08-17T07:16:26;101637.84;;;25.94;53.60
80504;BME280;69825;51.190;6.808;2023-08-17T07:18:51;101638.28;;;25.91;53.97
80504;BME280;69825;51.190;6.808;2023-08-17T07:21:16;101640.59;;;25.87;53.76
80504;BME280;69825;51.190;6.808;2023-08-17T07:23:44;101645.06;;;25.88;54.14
80504;BME280;69825;51.190;6.808;2023-08-17T07:26:10;101645.72;;;25.84;54.33
80504;BME280;69825;51.190;6.808;2023-08-17T07:28:35;101637.84;;;25.81;54.35
80504;BME280;69825;51.190;6.808;2023-08-17T07:31:00;101650.59;;;25.82;54.04
80504;BME280;69825;51.190;6.808;2023-08-17T07:33:26;101644.66;;;25.85;53.98
80504;BME280;69825;51.190;6.808;2023-08-17T07:35:51;101644.88;;;25.90;53.73
80504;BME280;69825;51.190;6.808;2023-08-17T07:38:18;101643.38;;;25.94;54.39
80504;BME280;69825;51.190;6.808;2023-08-17T07:40:43;101644.66;;;25.91;54.25
80504;BME280;69825;51.190;6.808;2023-08-17T07:43:09;101638.69;;;25.88;54.17
80504;BME280;69825;51.190;6.808;2023-08-17T07:45:34;101642.94;;;25.90;54.26
80504;BME280;69825;51.190;6.808;2023-08-17T07:47:59;101630.84;;;25.85;53.53
80504;BME280;69825;51.190;6.808;2023-08-17T07:50:25;101649.31;;;26.04;53.22
80504;BME280;69825;51.190;6.808;2023-08-17T07:52:50;101656.09;;;26.21;53.32
80504;BME280;69825;51.190;6.808;2023-08-17T07:55:15;101654.66;;;26.19;53.26
80504;BME280;69825;51.190;6.808;2023-08-17T07:57:41;101644.66;;;26.11;53.67
80504;BME280;69825;51.190;6.808;2023-08-17T08:00:06;101661.66;;;26.08;53.62
80504;BME280;69825;51.190;6.808;2023-08-17T08:02:32;101655.72;;;25.98;53.73
80504;BME280;69825;51.190;6.808;2023-08-17T08:04:58;101663.16;;;25.98;54.41
80504;BME280;69825;51.190;6.808;2023-08-17T08:07:23;101662.09;;;25.99;54.57
80504;BME280;69825;51.190;6.808;2023-08-17T08:09:48;101666.78;;;25.98;55.14
80504;BME280;69825;51.190;6.808;2023-08-17T08:12:14;101664.88;;;25.92;54.40
80504;BME280;69825;51.190;6.808;2023-08-17T08:14:39;101660.41;;;25.91;54.13
80504;BME280;69825;51.190;6.808;2023-08-17T08:17:04;101662.50;;;25.89;54.64
80504;BME280;69825;51.190;6.808;2023-08-17T08:19:30;101658.69;;;25.90;54.09
80504;BME280;69825;51.190;6.808;2023-08-17T08:21:57;101656.56;;;25.92;54.36
80504;BME280;69825;51.190;6.808;2023-08-17T08:24:23;101665.94;;;25.98;54.12
80504;BME280;69825;51.190;6.808;2023-08-17T08:26:48;101673.38;;;25.97;54.20
80504;BME280;69825;51.190;6.808;2023-08-17T08:29:13;101679.75;;;25.98;54.14
80504;BME280;69825;51.190;6.808;2023-08-17T08:31:39;101680.81;;;26.03;54.13
80504;BME280;69825;51.190;6.808;2023-08-17T08:34:04;101678.25;;;26.08;53.63
80504;BME280;69825;51.190;6.808;2023-08-17T08:36:29;101678.25;;;26.08;54.14
80504;BME280;69825;51.190;6.808;2023-08-17T08:38:55;101669.75;;;26.03;53.85
80504;BME280;69825;51.190;6.808;2023-08-17T08:41:21;101662.50;;;25.89;54.41
80504;BME280;69825;51.190;6.808;2023-08-17T08:43:47;101660.81;;;25.88;54.23
80504;BME280;69825;51.190;6.808;2023-08-17T08:46:13;101667.84;;;25.84;55.08
80504;BME280;69825;51.190;6.808;2023-08-17T08:48:41;101659.53;;;25.84;55.09
80504;BME280;69825;51.190;6.808;2023-08-17T08:51:08;101660.81;;;25.94;54.47
80504;BME280;69825;51.190;6.808;2023-08-17T08:53:45;101658.69;;;25.90;54.58
80504;BME280;69825;51.190;6.808;2023-08-17T08:56:15;101649.53;;;25.83;54.97
80504;BME280;69825;51.190;6.808;2023-08-17T08:58:45;101645.91;;;25.89;54.81
80504;BME280;69825;51.190;6.808;2023-08-17T09:01:12;101646.38;;;25.92;54.41
80504;BME280;69825;51.190;6.808;2023-08-17T09:03:38;101631.44;;;25.80;54.49
80504;BME280;69825;51.190;6.808;2023-08-17T09:06:03;101645.28;;;25.87;54.42
80504;BME280;69825;51.190;6.808;2023-08-17T09:08:30;101650.41;;;25.83;55.28
80504;BME280;69825;51.190;6.808;2023-08-17T09:10:55;101653.38;;;25.82;54.76
80504;BME280;69825;51.190;6.808;2023-08-17T09:13:21;101649.75;;;25.88;54.59
80504;BME280;69825;51.190;6.808;2023-08-17T09:15:46;101636.97;;;25.87;54.32
80504;BME280;69825;51.190;6.808;2023-08-17T09:18:12;101655.28;;;25.94;54.62
80504;BME280;69825;51.190;6.808;2023-08-17T09:23:13;101644.22;;;26.01;54.03
80504;BME280;69825;51.190;6.808;2023-08-17T09:25:41;101649.75;;;26.08;53.67
80504;BME280;69825;51.190;6.808;2023-08-17T09:28:10;101644.22;;;26.08;54.19
80504;BME280;69825;51.190;6.808;2023-08-17T09:30:58;101651.44;;;26.02;54.76
80504;BME280;69825;51.190;6.808;2023-08-17T09:33:26;101646.34;;;26.12;54.44
80504;BME280;69825;51.190;6.808;2023-08-17T09:35:53;101652.28;;;26.16;54.58
80504;BME280;69825;51.190;6.808;2023-08-17T09:38:19;101634.00;;;26.08;54.17
80504;BME280;69825;51.190;6.808;2023-08-17T09:40:45;101643.38;;;26.27;54.74
80504;BME280;69825;51.190;6.808;2023-08-17T09:43:11;101650.16;;;26.38;54.33
80504;BME280;69825;51.190;6.808;2023-08-17T09:45:40;101643.78;;;26.37;54.29
80504;BME280;69825;51.190;6.808;2023-08-17T09:48:07;101631.03;;;26.29;53.57
80504;BME280;69825;51.190;6.808;2023-08-17T09:50:33;101634.41;;;26.38;54.55
80504;BME280;69825;51.190;6.808;2023-08-17T09:52:58;101635.06;;;26.33;54.52
80504;BME280;69825;51.190;6.808;2023-08-17T09:55:24;101630.97;;;26.43;53.50
80504;BME280;69825;51.190;6.808;2023-08-17T09:57:50;101635.66;;;26.49;53.45
80504;BME280;69825;51.190;6.808;2023-08-17T10:00:17;101622.06;;;26.41;53.76
80504;BME280;69825;51.190;6.808;2023-08-17T10:02:44;101627.81;;;26.46;53.78
80504;BME280;69825;51.190;6.808;2023-08-17T10:05:13;101619.91;;;26.43;53.26
80504;BME280;69825;51.190;6.808;2023-08-17T10:07:45;101625.25;;;26.38;53.84
80504;BME280;69825;51.190;6.808;2023-08-17T10:10:12;101635.47;;;26.44;53.66
80504;BME280;69825;51.190;6.808;2023-08-17T10:12:45;101630.13;;;26.49;53.39
80504;BME280;69825;51.190;6.808;2023-08-17T10:15:15;101629.91;;;26.50;53.21
80504;BME280;69825;51.190;6.808;2023-08-17T10:17:50;101625.88;;;26.46;53.46
80504;BME280;69825;51.190;6.808;2023-08-17T10:20:18;101621.84;;;26.42;53.85
80504;BME280;69825;51.190;6.808;2023-08-17T10:22:52;101614.19;;;26.38;53.43
80504;BME280;69825;51.190;6.808;2023-08-17T10:25:21;101619.91;;;26.43;53.65
80504;BME280;69825;51.190;6.808;2023-08-17T10:27:48;101632.06;;;26.42;53.60
80504;BME280;69825;51.190;6.808;2023-08-17T10:30:14;101619.72;;;26.38;53.62
80504;BME280;69825;51.190;6.808;2023-08-17T10:32:40;101618.47;;;26.27;54.28
80504;BME280;69825;51.190;6.808;2023-08-17T10:35:10;101624.22;;;26.25;54.52
80504;BME280;69825;51.190;6.808;2023-08-17T10:37:37;101628.91;;;26.25;54.57
80504;BME280;69825;51.190;6.808;2023-08-17T10:40:04;101628.88;;;26.18;54.73
80504;BME280;69825;51.190;6.808;2023-08-17T10:42:33;101637.84;;;26.27;54.66
80504;BME280;69825;51.190;6.808;2023-08-17T10:45:00;101633.13;;;26.21;54.69
80504;BME280;69825;51.190;6.808;2023-08-17T10:47:31;101638.44;;;26.22;55.21
80504;BME280;69825;51.190;6.808;2023-08-17T10:50:04;101642.53;;;26.26;54.81
80504;BME280;69825;51.190;6.808;2023-08-17T10:52:31;101616.78;;;26.13;54.99
80504;BME280;69825;51.190;6.808;2023-08-17T10:55:05;101637.81;;;26.20;54.95
80504;BME280;69825;51.190;6.808;2023-08-17T10:57:32;101638.66;;;26.21;54.64
80504;BME280;69825;51.190;6.808;2023-08-17T11:00:23;101637.38;;;26.23;54.78
80504;BME280;69825;51.190;6.808;2023-08-17T11:05:41;101639.97;;;26.25;54.78
80504;BME280;69825;51.190;6.808;2023-08-17T11:08:11;101639.53;;;26.28;54.78
80504;BME280;69825;51.190;6.808;2023-08-17T11:10:39;101643.16;;;26.28;54.83
80504;BME280;69825;51.190;6.808;2023-08-17T11:13:05;101638.06;;;26.25;54.71
80504;BME280;69825;51.190;6.808;2023-08-17T11:15:40;101632.31;;;26.27;54.53
80504;BME280;69825;51.190;6.808;2023-08-17T11:18:08;101634.44;;;26.31;54.42
80504;BME280;69825;51.190;6.808;2023-08-17T11:20:35;101609.06;;;26.21;54.32
80504;BME280;69825;51.190;6.808;2023-08-17T11:23:01;101635.25;;;26.39;54.71
80504;BME280;69825;51.190;6.808;2023-08-17T11:25:27;101628.25;;;26.36;55.15
80504;BME280;69825;51.190;6.808;2023-08-17T11:27:54;101624.00;;;26.33;54.44
80504;BME280;69825;51.190;6.808;2023-08-17T11:30:20;101627.19;;;26.30;54.77
80504;BME280;69825;51.190;6.808;2023-08-17T11:32:48;101632.91;;;26.35;54.61
80504;BME280;69825;51.190;6.808;2023-08-17T11:35:13;101633.13;;;26.34;54.91
80504;BME280;69825;51.190;6.808;2023-08-17T11:37:38;101629.28;;;26.35;54.96
80504;BME280;69825;51.190;6.808;2023-08-17T11:40:04;101631.44;;;26.40;55.24
80504;BME280;69825;51.190;6.808;2023-08-17T11:42:29;101628.00;;;26.44;54.91
80504;BME280;69825;51.190;6.808;2023-08-17T11:44:55;101630.16;;;26.35;55.41
80504;BME280;69825;51.190;6.808;2023-08-17T11:47:21;101628.03;;;26.38;55.12
80504;BME280;69825;51.190;6.808;2023-08-17T11:49:50;101639.94;;;26.38;54.84
80504;BME280;69825;51.190;6.808;2023-08-17T11:52:16;101635.66;;;26.42;55.16
80504;BME280;69825;51.190;6.808;2023-08-17T11:55:08;101629.94;;;26.44;54.68
80504;BME280;69825;51.190;6.808;2023-08-17T11:57:37;101633.94;;;26.48;54.59
80504;BME280;69825;51.190;6.808;2023-08-17T12:00:04;101637.34;;;26.50;55.52
80504;BME280;69825;51.190;6.808;2023-08-17T12:02:37;101634.16;;;26.53;54.60
80504;BME280;69825;51.190;6.808;2023-08-17T12:05:07;101638.19;;;26.57;55.09
80504;BME280;69825;51.190;6.808;2023-08-17T12:07:34;101636.72;;;26.61;54.49
80504;BME280;69825;51.190;6.808;2023-08-17T12:10:02;101629.84;;;26.63;54.54
80504;BME280;69825;51.190;6.808;2023-08-17T12:12:28;101629.66;;;26.65;54.40
80504;BME280;69825;51.190;6.808;2023-08-17T12:14:53;101635.59;;;26.68;54.48
80504;BME280;69825;51.190;6.808;2023-08-17T12:17:20;101633.66;;;26.69;54.37
80504;BME280;69825;51.190;6.808;2023-08-17T12:19:49;101630.47;;;26.72;54.75
80504;BME280;69825;51.190;6.808;2023-08-17T12:22:15;101629.81;;;26.77;54.72
80504;BME280;69825;51.190;6.808;2023-08-17T12:24:41;101620.66;;;26.76;54.58
80504;BME280;69825;51.190;6.808;2023-08-17T12:27:07;101623.63;;;26.81;54.33
80504;BME280;69825;51.190;6.808;2023-08-17T12:29:45;101626.16;;;26.89;54.37
80504;BME280;69825;51.190;6.808;2023-08-17T12:32:11;101607.59;;;26.96;53.82
80504;BME280;69825;51.190;6.808;2023-08-17T12:34:38;101599.03;;;27.04;53.47
80504;BME280;69825;51.190;6.808;2023-08-17T12:37:03;101617.97;;;27.14;53.50
80504;BME280;69825;51.190;6.808;2023-08-17T12:39:29;101583.28;;;26.98;52.90
80504;BME280;69825;51.190;6.808;2023-08-17T12:41:54;101582.63;;;27.03;53.63
80504;BME280;69825;51.190;6.808;2023-08-17T12:44:19;101609.66;;;27.14;53.97
80504;BME280;69825;51.190;6.808;2023-08-17T12:46:45;101620.66;;;27.27;53.24
80504;BME280;69825;51.190;6.808;2023-08-17T12:49:10;101600.88;;;27.17;53.09
80504;BME280;69825;51.190;6.808;2023-08-17T12:51:36;101617.88;;;27.27;53.40
80504;BME280;69825;51.190;6.808;2023-08-17T12:54:03;101613.56;;;27.31;54.12